Latest Weather Observations for Applethorpe

IDN60801

Issued at 11:32 pm EDT Thursday 11 February 2016 (issued every 30 minutes, with the page automatically refreshed every 10 minutes)

About weather observations | Map of weather stations | Latest weather observations for NSW | Other Formats
Station Details ID: 041175 Name: APPLETHORPE Lat: -28.62 Lon: 151.95 Height: 871.6 m
Data from the previous 72 hours. | See also: Recent months at Applethorpe
Date/Time
EDT
Temp
°C
App
Temp
°C
Dew
Point
Rel
Hum
%
Delta-T
°C
Wind Press
QNH
hPa
Press
MSL
hPa
Rain
since 9 am
mm
Dir
 
Spd
km/h
Gust
km/h
Spd
kts
Gust
kts
11/11:30pm 16.8 17.1 15.1 90 1.0 E 7 17 4 9 1017.9 1013.3 0.0
11/11:00pm 16.9 17.3 15.2 90 1.0 ENE 7 15 4 8 1017.9 1013.3 0.0
11/10:30pm 17.0 18.0 15.4 90 1.0 ENE 4 13 2 7 1018.1 1013.5 0.0
11/10:00pm 17.4 18.5 15.6 89 1.1 E 4 9 2 5 1018.0 1013.4 0.0
11/09:30pm 17.7 18.8 15.6 87 1.3 E 4 9 2 5 1017.8 1013.2 0.0
11/09:00pm 18.3 18.8 15.5 84 1.7 E 7 17 4 9 1017.4 1012.7 0.0
11/08:30pm 18.9 19.4 15.6 81 2.0 E 7 15 4 8 1017.2 1012.5 0.0
11/08:00pm 19.6 20.1 15.5 77 2.5 E 7 17 4 9 1016.8 1012.2 0.0
11/07:30pm 20.6 20.5 15.0 70 3.4 E 9 17 5 9 1016.6 1012.0 0.0
11/07:00pm 22.1 21.9 14.8 63 4.5 E 9 17 5 9 1016.2 1011.5 0.0
11/06:30pm 22.8 22.0 13.9 57 5.4 ESE 11 24 6 13 1015.7 1011.1 0.0
11/06:00pm 23.6 22.8 14.1 55 5.8 E 11 20 6 11 1015.5 1010.9 0.0
11/05:30pm 24.6 24.3 13.4 49 6.8 E 7 13 4 7 1015.4 1010.7 0.0
11/05:00pm 24.8 23.4 12.2 45 7.5 ESE 11 19 6 10 1015.4 1010.7 0.0
11/04:30pm 24.5 23.8 12.0 45 7.4 ESE 7 13 4 7 1015.6 1011.0 0.0
11/04:00pm 24.4 23.3 11.9 45 7.4 ESE 9 17 5 9 1015.6 1011.0 0.0
11/03:30pm 24.3 23.3 12.4 47 7.1 ESE 9 19 5 10 1015.7 1011.1 0.0
11/03:00pm 24.7 23.2 10.7 41 8.1 ESE 9 19 5 10 1016.0 1011.3 0.0
11/02:30pm 24.5 23.7 13.0 48 6.9 E 9 19 5 10 1016.5 1011.9 0.0
11/02:00pm 24.1 23.9 13.5 51 6.4 E 7 13 4 7 1016.7 1012.1 0.0
11/01:30pm 22.2 21.0 11.7 51 6.1 ESE 9 17 5 9 1016.9 1012.3 0.0
11/01:00pm 23.3 22.6 14.3 57 5.5 E 11 20 6 11 1017.3 1012.6 0.0
11/12:30pm 22.9 21.6 12.6 52 6.1 E 11 20 6 11 1017.5 1012.8 0.0
11/12:00pm 22.9 22.0 12.6 52 6.1 ESE 9 19 5 10 1017.7 1013.1 0.0
11/11:30am 21.8 20.2 12.7 56 5.4 ESE 13 20 7 11 1017.8 1013.2 0.0
11/11:00am 21.2 19.7 13.1 60 4.8 E 13 22 7 12 1017.8 1013.2 0.0
11/10:30am 21.3 20.7 13.6 61 4.6 E 9 19 5 10 1017.7 1013.1 0.0
11/10:00am 19.9 19.3 13.5 66 3.8 E 9 19 5 10 1017.7 1013.1 0.0
11/09:30am 19.0 18.7 14.3 74 2.8 ESE 9 20 5 11 1017.7 1013.1 0.0
11/09:00am 18.6 18.3 14.3 76 2.6 ESE 9 20 5 11 1017.5 1012.8 0.0
11/08:30am 17.3 16.5 14.1 81 1.9 E 11 20 6 11 1017.4 1012.7 0.0
11/08:00am 16.9 16.5 14.2 84 1.6 E 9 20 5 11 1017.2 1012.5 0.0
11/07:30am 16.3 16.3 14.3 88 1.2 E 7 17 4 9 1016.8 1012.2 0.0
11/07:00am 15.6 15.9 14.4 93 0.7 ENE 6 11 3 6 1016.7 1012.1 0.0
11/06:30am 15.3 15.5 14.3 94 0.6 E 6 15 3 8 1016.4 1011.7 0.0
11/06:00am 15.2 15.5 14.5 96 0.4 ENE 6 11 3 6 1016.1 1011.4 0.0
11/05:30am 14.9 15.4 14.0 94 0.5 E 4 7 2 4 1015.8 1011.2 0.0
11/05:00am 15.2 15.4 14.2 94 0.6 E 6 11 3 6 1015.6 1011.0 0.0
11/04:30am 15.9 16.2 14.4 91 0.9 E 6 11 3 6 1015.6 1011.0 0.0
11/04:00am 16.2 16.5 14.5 90 1.0 E 6 9 3 5 1015.7 1011.1 0.0
11/03:30am 16.2 16.5 14.5 90 1.0 E 6 13 3 7 1015.8 1011.2 0.0
11/03:00am 16.3 16.8 15.0 92 0.8 E 6 13 3 7 1016.2 1011.5 0.0
11/02:30am 16.1 17.0 15.1 94 0.6 ENE 4 7 2 4 1016.5 1011.9 0.0
11/02:00am 16.1 16.9 14.9 93 0.7 ENE 4 7 2 4 1016.8 1012.2 0.0
11/01:30am 16.3 16.7 14.8 91 0.9 E 6 9 3 5 1017.2 1012.5 0.0
11/01:00am 16.3 16.8 15.0 92 0.8 E 6 17 3 9 1017.5 1012.8 0.0
11/12:30am 15.9 16.4 15.1 95 0.5 ENE 6 7 3 4 1017.7 1013.1 0.0
11/12:00am 16.2 16.7 15.0 93 0.7 ENE 6 9 3 5 1017.8 1013.2 0.0
 
Date/Time
EDT
Temp
°C
App
Temp
°C
Dew
Point
Rel
Hum
%
Delta-T
°C
Wind Press
QNH
hPa
Press
MSL
hPa
Rain
since 9 am
mm
Dir
 
Spd
km/h
Gust
km/h
Spd
kts
Gust
kts
10/11:30pm 16.8 17.3 15.5 92 0.8 ENE 7 17 4 9 1017.9 1013.3 0.0
10/11:00pm 17.0 17.7 15.7 92 0.8 ENE 6 15 3 8 1017.8 1013.2 0.0
10/10:30pm 17.1 17.7 15.8 92 0.8 E 7 17 4 9 1017.9 1013.3 0.0
10/10:00pm 16.9 17.5 15.4 91 0.9 ENE 6 9 3 5 1017.9 1013.3 0.0
10/09:30pm 17.2 18.1 15.0 87 1.3 ENE 4 7 2 4 1017.8 1013.2 0.0
10/09:00pm 17.8 18.0 14.3 80 2.1 E 6 9 3 5 1017.6 1013.0 0.0
10/08:30pm 18.1 18.6 13.9 76 2.5 ENE 4 7 2 4 1017.4 1012.7 0.0
10/08:00pm 19.2 19.5 13.5 69 3.4 E 4 7 2 4 1017.2 1012.5 0.0
10/07:30pm 20.6 20.1 12.8 61 4.6 E 7 13 4 7 1016.9 1012.3 0.0
10/07:00pm 21.8 21.4 12.5 55 5.5 E 6 13 3 7 1016.6 1012.0 0.0
10/06:30pm 22.6 22.1 12.5 53 6.0 E 7 13 4 7 1016.4 1011.7 0.0
10/06:00pm 23.1 22.4 11.9 49 6.6 E 7 17 4 9 1016.2 1011.5 0.0
10/05:30pm 23.5 23.0 12.6 50 6.5 E 7 17 4 9 1016.1 1011.4 0.0
10/05:00pm 23.4 22.3 12.0 48 6.7 ESE 9 19 5 10 1016.2 1011.5 0.0
10/04:30pm 23.2 22.4 11.6 48 6.8 E 7 15 4 8 1016.3 1011.6 0.0
10/04:00pm 23.2 22.3 12.6 51 6.3 ESE 9 19 5 10 1016.4 1011.7 0.0
10/03:30pm 22.9 22.0 12.6 52 6.1 E 9 20 5 11 1016.4 1011.7 0.0
10/03:00pm 24.2 23.8 14.1 53 6.2 E 9 19 5 10 1016.7 1012.1 0.0
10/02:30pm 22.9 21.9 12.4 51 6.2 ENE 9 15 5 8 1017.0 1012.4 0.0
10/02:00pm 22.9 22.4 13.8 56 5.5 E 9 20 5 11 1017.4 1012.7 0.0
10/01:30pm 22.4 21.8 13.6 57 5.3 ENE 9 24 5 13 1017.6 1013.0 0.0
10/01:00pm 22.0 21.0 13.5 58 5.1 E 11 20 6 11 1017.8 1013.2 0.0
10/12:30pm 21.0 19.4 12.7 59 4.9 ESE 13 19 7 10 1018.0 1013.4 0.0
10/12:00pm 20.9 19.4 13.0 60 4.7 E 13 24 7 13 1018.2 1013.6 0.0
10/11:30am 21.9 20.8 13.2 57 5.2 E 11 26 6 14 1018.3 1013.7 0.0
10/11:00am 19.2 18.1 12.1 63 4.1 SE 9 19 5 10 1018.6 1014.0 0.0
10/10:30am 19.1 17.9 12.8 67 3.7 SE 11 20 6 11 1018.6 1014.0 0.0
10/10:00am 18.9 17.6 12.5 66 3.7 SE 11 24 6 13 1018.7 1014.1 0.0
10/09:30am 18.6 17.9 13.2 71 3.2 ESE 9 24 5 13 1018.7 1014.1 0.0
10/09:00am 18.2 16.5 12.3 68 3.4 E 13 24 7 13 1018.5 1013.8 0.0
10/08:30am 17.7 16.6 13.1 74 2.7 ESE 11 20 6 11 1018.2 1013.6 0.0
10/08:00am 16.5 15.6 12.7 78 2.2 ESE 9 20 5 11 1017.7 1013.1 0.0
10/07:30am 15.3 14.4 12.5 83 1.6 ESE 9 19 5 10 1017.5 1012.8 0.0
10/07:00am 15.5 14.2 12.5 82 1.7 ESE 11 22 6 12 1017.5 1012.8 0.0
10/06:30am 15.5 14.3 12.7 83 1.6 ESE 11 17 6 9 1017.3 1012.6 0.0
10/06:00am 15.2 14.9 12.8 85 1.4 ESE 6 15 3 8 1017.2 1012.5 0.0
10/05:30am 15.3 14.4 12.7 84 1.5 ESE 9 19 5 10 1017.0 1012.4 0.0
10/05:00am 15.6 14.4 12.8 83 1.6 ESE 11 20 6 11 1016.9 1012.3 0.0
10/04:30am 15.5 14.7 12.9 84 1.5 ESE 9 19 5 10 1016.8 1012.2 0.0
10/04:00am 15.4 14.3 13.0 85 1.4 ESE 11 22 6 12 1016.8 1012.2 0.0
10/03:30am 15.6 14.0 12.8 83 1.6 ESE 13 28 7 15 1016.9 1012.3 0.0
10/03:00am 15.9 14.8 13.0 83 1.7 ESE 11 22 6 12 1017.3 1012.6 0.0
10/02:30am 16.1 15.1 13.4 84 1.6 ESE 11 24 6 13 1017.3 1012.6 0.0
10/02:00am 16.0 15.0 13.4 84 1.5 ESE 11 20 6 11 1017.5 1012.8 0.0
10/01:30am 15.9 14.5 13.5 86 1.4 ESE 13 24 7 13 1017.9 1013.3 0.0
10/01:00am 16.2 15.3 13.6 84 1.5 ESE 11 22 6 12 1018.3 1013.7 0.0
10/12:30am 16.4 15.6 13.9 85 1.5 ESE 11 26 6 14 1018.7 1014.1 0.0
10/12:00am 17.0 17.2 14.7 86 1.4 ESE 7 13 4 7 1019.0 1014.4 0.0
 
Date/Time
EDT
Temp
°C
App
Temp
°C
Dew
Point
Rel
Hum
%
Delta-T
°C
Wind Press
QNH
hPa
Press
MSL
hPa
Rain
since 9 am
mm
Dir
 
Spd
km/h
Gust
km/h
Spd
kts
Gust
kts
09/11:30pm 17.3 17.0 14.3 82 1.8 ESE 9 20 5 11 1019.5 1014.9 0.0
09/11:00pm 17.5 17.1 14.1 80 2.0 ESE 9 19 5 10 1019.8 1015.2 0.0
09/10:30pm 17.7 17.0 14.2 80 2.1 E 11 20 6 11 1019.9 1015.3 0.0
09/10:00pm 17.8 17.8 14.3 80 2.1 ESE 7 17 4 9 1020.0 1015.4 0.0
09/09:30pm 17.9 18.0 14.4 80 2.1 ESE 7 17 4 9 1019.8 1015.2 0.0
09/09:00pm 18.2 17.8 14.0 76 2.5 ESE 9 15 5 8 1019.5 1014.9 0.0
09/08:30pm 18.4 17.8 13.5 73 2.9 E 9 17 5 9 1019.4 1014.8 0.0
09/08:00pm 18.8 18.5 13.2 70 3.3 ESE 7 15 4 8 1019.2 1014.6 0.0
09/07:30pm 19.7 18.3 12.3 62 4.3 ESE 11 17 6 9 1019.1 1014.5 0.0
09/07:00pm 20.9 19.3 11.5 55 5.4 SE 11 22 6 12 1018.8 1014.2 0.0
09/06:30pm 21.5 18.8 11.7 53 5.7 ESE 17 28 9 15 1018.6 1014.0 0.0
09/06:00pm 22.2 19.1 10.4 47 6.7 ESE 17 32 9 17 1018.3 1013.7 0.0
09/05:30pm 22.5 19.4 11.5 49 6.4 ESE 19 33 10 18 1018.2 1013.6 0.0
09/05:00pm 23.6 21.7 11.9 47 6.9 ESE 13 28 7 15 1018.2 1013.6 0.0
09/04:30pm 23.2 20.7 12.4 50 6.4 ESE 17 33 9 18 1018.2 1013.6 0.0
09/04:00pm 23.8 21.8 12.7 49 6.6 SE 15 30 8 16 1018.3 1013.7 0.0
09/03:30pm 23.3 20.7 13.1 52 6.1 ESE 19 35 10 19 1018.7 1014.1 0.0
09/03:00pm 24.0 22.6 13.4 51 6.4 ESE 13 24 7 13 1018.8 1014.2 0.0
09/02:30pm 23.8 21.8 12.7 49 6.6 ESE 15 26 8 14 1019.0 1014.4 0.0
09/02:00pm 22.2 19.9 13.1 56 5.4 SE 17 32 9 17 1019.5 1014.9 0.0
09/01:30pm 22.4 20.1 13.0 55 5.6 ESE 17 30 9 16 1019.8 1015.2 0.0
09/01:00pm 22.8 20.7 12.5 52 6.1 ESE 15 28 8 15 1019.9 1015.3 0.0
09/12:30pm 21.1 19.0 12.4 57 5.1 SE 15 30 8 16 1020.1 1015.5 0.0
09/12:00pm 21.5 20.1 13.3 59 4.9 SE 13 30 7 16 1020.2 1015.6 0.0
09/11:30am 21.5 20.2 13.7 61 4.7 SE 13 26 7 14 1020.1 1015.5 0.0
09/11:00am 20.8 18.1 12.8 60 4.7 ESE 19 43 10 23 1019.9 1015.3 0.0
09/10:30am 20.3 18.5 13.4 64 4.1 ESE 15 33 8 18 1020.1 1015.5 0.0
09/10:00am 19.8 17.6 13.2 65 3.9 ESE 17 39 9 21 1020.1 1015.5 0.0
09/09:30am 19.4 18.0 13.3 68 3.6 ESE 13 30 7 16 1020.1 1015.5 0.0
09/09:00am 18.6 17.5 13.2 71 3.2 E 11 26 6 14 1019.8 1015.2 0.0
09/08:30am 18.5 17.2 13.6 73 2.9 ESE 13 24 7 13 1019.4 1014.8 0.0
09/08:00am 17.0 15.5 13.0 77 2.3 ESE 13 26 7 14 1019.2 1014.6 0.0
09/07:30am 16.6 14.8 13.2 80 2.0 ESE 15 24 8 13 1019.0 1014.4 0.0
09/07:00am 15.8 14.7 13.2 84 1.5 ESE 11 24 6 13 1018.9 1014.3 0.0
09/06:30am 15.2 15.5 13.5 89 1.0 ESE 4 11 2 6 1018.7 1014.1 0.0
09/06:00am 15.4 15.4 13.5 88 1.1 ESE 6 13 3 7 1018.5 1013.8 0.0
09/05:30am 15.3 15.2 13.4 88 1.1 ESE 6 17 3 9 1018.3 1013.7 0.0
09/05:00am 15.6 15.6 13.5 87 1.2 ESE 6 13 3 7 1018.2 1013.6 0.0
09/04:30am 15.9 15.4 13.9 88 1.2 ESE 9 17 5 9 1018.1 1013.5 0.0
09/04:00am 15.9 15.4 13.7 87 1.3 ESE 9 19 5 10 1018.1 1013.5 0.0
09/03:30am 15.8 14.9 13.8 88 1.2 ESE 11 19 6 10 1018.2 1013.6 0.0
09/03:00am 15.7 15.1 13.6 87 1.2 SE 9 20 5 11 1018.2 1013.6 0.0
09/02:30am 15.7 15.5 13.6 87 1.2 ESE 7 17 4 9 1018.5 1013.8 0.0
09/02:00am 16.1 15.5 13.4 84 1.6 SE 9 19 5 10 1018.8 1014.2 0.0
09/01:30am 16.5 16.4 14.0 85 1.5 ESE 7 15 4 8 1019.3 1014.7 0.0
09/01:00am 16.7 16.3 14.2 85 1.5 ESE 9 17 5 9 1019.7 1015.1 0.0

Other Formats:

Comma delimited format used in spreadsheet applications
http://www.bom.gov.au/fwo/IDN60801/IDN60801.94553.axf

JavaScript Object Notation format (JSON) in row-major order
http://www.bom.gov.au/fwo/IDN60801/IDN60801.94553.json